PHGAS EBOS-EBAW
Flight info
| Callsign | PHGAS |
|---|---|
| Flight time | 0h 42m |
| Altitude | 7000 |
| Route | DCT |
| Aircraft | C172/L-SFG/C |
Departure
| Time | 2026-04-28 18:06 |
|---|---|
| Airport | Ostend-Bruges International Airport (EBOS) |
Arrival
| Time | 2026-04-28 18:49 |
|---|---|
| Airport | Antwerp International Airport (Deurne) (EBAW) |
| Time | Latitude | Longitude | Altitude | Speed | Heading |
|---|---|---|---|---|---|
| 2026-04-28 17:45 | 51.19923 | 2.85576 | 18 ft | 0 kts | 219° |
| 2026-04-28 17:52 | 51.19923 | 2.85575 | 18 ft | 2 kts | 219° |
| 2026-04-28 17:53 | 51.19853 | 2.85469 | 18 ft | 24 kts | 256° |
| 2026-04-28 17:53 | 51.19833 | 2.85347 | 18 ft | 0 kts | 234° |
| 2026-04-28 17:54 | 51.19819 | 2.85319 | 18 ft | 15 kts | 226° |
| 2026-04-28 17:54 | 51.19777 | 2.85276 | 18 ft | 0 kts | 212° |
| 2026-04-28 18:04 | 51.19770 | 2.85270 | 18 ft | 11 kts | 212° |
| 2026-04-28 18:04 | 51.19686 | 2.85278 | 17 ft | 13 kts | 160° |
| 2026-04-28 18:05 | 51.19680 | 2.85439 | 16 ft | 19 kts | 74° |
| 2026-04-28 18:05 | 51.19703 | 2.85587 | 17 ft | 22 kts | 77° |
| 2026-04-28 18:05 | 51.19787 | 2.86151 | 20 ft | 67 kts | 77° |
| 2026-04-28 18:05 | 51.19909 | 2.86967 | 173 ft | 82 kts | 74° |
| 2026-04-28 18:06 | 51.20012 | 2.87881 | 400 ft | 86 kts | 75° |
| 2026-04-28 18:06 | 51.19986 | 2.88821 | 693 ft | 88 kts | 96° |
| 2026-04-28 18:06 | 51.19714 | 2.89765 | 846 ft | 98 kts | 107° |
| 2026-04-28 18:06 | 51.19400 | 2.90655 | 1177 ft | 84 kts | 101° |
| 2026-04-28 18:07 | 51.19191 | 2.91545 | 1360 ft | 87 kts | 99° |
| 2026-04-28 18:07 | 51.19009 | 2.92487 | 1520 ft | 90 kts | 97° |
| 2026-04-28 18:07 | 51.18830 | 2.93424 | 1750 ft | 85 kts | 98° |
| 2026-04-28 18:07 | 51.18645 | 2.94284 | 1991 ft | 84 kts | 95° |
| 2026-04-28 18:08 | 51.18507 | 2.95173 | 2194 ft | 84 kts | 95° |
| 2026-04-28 18:08 | 51.18351 | 2.96030 | 2426 ft | 80 kts | 96° |
| 2026-04-28 18:08 | 51.18192 | 2.96904 | 2578 ft | 85 kts | 95° |
| 2026-04-28 18:08 | 51.18074 | 2.97824 | 2784 ft | 82 kts | 89° |
| 2026-04-28 18:09 | 51.17981 | 2.98695 | 3038 ft | 77 kts | 91° |
| 2026-04-28 18:09 | 51.17859 | 2.99546 | 3215 ft | 81 kts | 91° |
| 2026-04-28 18:09 | 51.17744 | 3.00443 | 3377 ft | 83 kts | 93° |
| 2026-04-28 18:09 | 51.17616 | 3.01342 | 3561 ft | 82 kts | 94° |
| 2026-04-28 18:10 | 51.17493 | 3.02205 | 3778 ft | 78 kts | 95° |
| 2026-04-28 18:10 | 51.17408 | 3.03029 | 3956 ft | 78 kts | 93° |
| 2026-04-28 18:10 | 51.17312 | 3.03904 | 4091 ft | 83 kts | 94° |
| 2026-04-28 18:10 | 51.17214 | 3.04811 | 4229 ft | 86 kts | 94° |
| 2026-04-28 18:11 | 51.17124 | 3.05775 | 4352 ft | 88 kts | 94° |
| 2026-04-28 18:11 | 51.17043 | 3.06758 | 4472 ft | 89 kts | 93° |
| 2026-04-28 18:11 | 51.16960 | 3.07722 | 4622 ft | 88 kts | 94° |
| 2026-04-28 18:11 | 51.16866 | 3.08704 | 4724 ft | 90 kts | 94° |
| 2026-04-28 18:12 | 51.16805 | 3.09691 | 4834 ft | 90 kts | 92° |
| 2026-04-28 18:12 | 51.16734 | 3.10641 | 5057 ft | 80 kts | 95° |
| 2026-04-28 18:12 | 51.16660 | 3.11418 | 5407 ft | 59 kts | 96° |
| 2026-04-28 18:12 | 51.16583 | 3.12092 | 5530 ft | 67 kts | 96° |
| 2026-04-28 18:13 | 51.16503 | 3.12960 | 5456 ft | 93 kts | 97° |
| 2026-04-28 18:13 | 51.16413 | 3.14034 | 5443 ft | 100 kts | 92° |
| 2026-04-28 18:13 | 51.16396 | 3.15085 | 5603 ft | 93 kts | 91° |
| 2026-04-28 18:13 | 51.16357 | 3.16085 | 5736 ft | 91 kts | 93° |
| 2026-04-28 18:14 | 51.16312 | 3.17112 | 5752 ft | 98 kts | 93° |
| 2026-04-28 18:14 | 51.16333 | 3.18179 | 5903 ft | 88 kts | 81° |
| 2026-04-28 18:14 | 51.16484 | 3.19065 | 6142 ft | 80 kts | 74° |
| 2026-04-28 18:14 | 51.16670 | 3.20028 | 6015 ft | 102 kts | 80° |
| 2026-04-28 18:15 | 51.16847 | 3.21185 | 5922 ft | 107 kts | 79° |
| 2026-04-28 18:15 | 51.17007 | 3.22264 | 6118 ft | 94 kts | 80° |
| 2026-04-28 18:15 | 51.17169 | 3.23252 | 6230 ft | 93 kts | 79° |
| 2026-04-28 18:15 | 51.17338 | 3.24293 | 6261 ft | 98 kts | 80° |
| 2026-04-28 18:16 | 51.17518 | 3.25385 | 6212 ft | 107 kts | 78° |
| 2026-04-28 18:16 | 51.17727 | 3.26542 | 6164 ft | 107 kts | 78° |
| 2026-04-28 18:16 | 51.17921 | 3.27614 | 6350 ft | 94 kts | 79° |
| 2026-04-28 18:16 | 51.18080 | 3.28575 | 6568 ft | 81 kts | 82° |
| 2026-04-28 18:17 | 51.18236 | 3.29333 | 6843 ft | 70 kts | 73° |
| 2026-04-28 18:17 | 51.18459 | 3.30172 | 6784 ft | 93 kts | 76° |
| 2026-04-28 18:17 | 51.18689 | 3.31207 | 6770 ft | 101 kts | 76° |
| 2026-04-28 18:17 | 51.18922 | 3.32208 | 6926 ft | 94 kts | 75° |
| 2026-04-28 18:18 | 51.19182 | 3.33214 | 6949 ft | 97 kts | 75° |
| 2026-04-28 18:18 | 51.19459 | 3.34236 | 6943 ft | 101 kts | 72° |
| 2026-04-28 18:18 | 51.19733 | 3.35236 | 7038 ft | 97 kts | 73° |
| 2026-04-28 18:18 | 51.19892 | 3.35917 | 7033 ft | 101 kts | 76° |
| 2026-04-28 18:19 | 51.20196 | 3.37214 | 7223 ft | 94 kts | 75° |
| 2026-04-28 18:19 | 51.20333 | 3.38300 | 7204 ft | 97 kts | 95° |
| 2026-04-28 18:19 | 51.20253 | 3.39370 | 7182 ft | 103 kts | 99° |
| 2026-04-28 18:19 | 51.20153 | 3.40372 | 7124 ft | 107 kts | 99° |
| 2026-04-28 18:20 | 51.20111 | 3.41037 | 7206 ft | 98 kts | 95° |
| 2026-04-28 18:20 | 51.20100 | 3.42143 | 7176 ft | 104 kts | 92° |
| 2026-04-28 18:20 | 51.20113 | 3.43341 | 7096 ft | 110 kts | 91° |
| 2026-04-28 18:21 | 51.20146 | 3.44544 | 7139 ft | 104 kts | 88° |
| 2026-04-28 18:21 | 51.20201 | 3.45686 | 7100 ft | 108 kts | 85° |
| 2026-04-28 18:21 | 51.20285 | 3.46846 | 6919 ft | 98 kts | 87° |
| 2026-04-28 18:21 | 51.20359 | 3.47946 | 6535 ft | 96 kts | 88° |
| 2026-04-28 18:22 | 51.20421 | 3.48953 | 6302 ft | 87 kts | 87° |
| 2026-04-28 18:22 | 51.20445 | 3.49421 | 6283 ft | 81 kts | 88° |
| 2026-04-28 18:22 | 51.20504 | 3.50133 | 6118 ft | 92 kts | 84° |
| 2026-04-28 18:22 | 51.20623 | 3.51141 | 6069 ft | 86 kts | 82° |
| 2026-04-28 18:23 | 51.20757 | 3.52057 | 6067 ft | 86 kts | 82° |
| 2026-04-28 18:23 | 51.20787 | 3.52294 | 6077 ft | 88 kts | 82° |
| 2026-04-28 18:23 | 51.20867 | 3.53228 | 6054 ft | 97 kts | 89° |
| 2026-04-28 18:23 | 51.20880 | 3.54359 | 6012 ft | 103 kts | 91° |
| 2026-04-28 18:24 | 51.20888 | 3.55471 | 6131 ft | 96 kts | 89° |
| 2026-04-28 18:24 | 51.20891 | 3.56140 | 6311 ft | 86 kts | 91° |
| 2026-04-28 18:24 | 51.20891 | 3.56198 | 6329 ft | 84 kts | 90° |
| 2026-04-28 18:24 | 51.20917 | 3.56820 | 6497 ft | 79 kts | 86° |
| 2026-04-28 18:25 | 51.21025 | 3.57750 | 6486 ft | 94 kts | 80° |
| 2026-04-28 18:25 | 51.21088 | 3.58217 | 6470 ft | 97 kts | 77° |
| 2026-04-28 18:25 | 51.21264 | 3.59244 | 6520 ft | 99 kts | 78° |
| 2026-04-28 18:26 | 51.21717 | 3.61440 | 6511 ft | 107 kts | 73° |
| 2026-04-28 18:26 | 51.21956 | 3.62564 | 6499 ft | 108 kts | 76° |
| 2026-04-28 18:26 | 51.22213 | 3.63694 | 6485 ft | 109 kts | 76° |
| 2026-04-28 18:26 | 51.22468 | 3.64827 | 6461 ft | 109 kts | 70° |
| 2026-04-28 18:27 | 51.22733 | 3.65894 | 6646 ft | 94 kts | 72° |
| 2026-04-28 18:27 | 51.22967 | 3.66838 | 6720 ft | 96 kts | 77° |
| 2026-04-28 18:27 | 51.23167 | 3.67969 | 6587 ft | 111 kts | 80° |
| 2026-04-28 18:27 | 51.23348 | 3.69131 | 6456 ft | 101 kts | 76° |
| 2026-04-28 18:28 | 51.23544 | 3.70241 | 5943 ft | 105 kts | 79° |
| 2026-04-28 18:28 | 51.23700 | 3.71327 | 5508 ft | 99 kts | 85° |
| 2026-04-28 18:28 | 51.23773 | 3.72373 | 5098 ft | 98 kts | 84° |
| 2026-04-28 18:28 | 51.23856 | 3.73388 | 4821 ft | 85 kts | 79° |
| 2026-04-28 18:29 | 51.23942 | 3.74325 | 4670 ft | 91 kts | 82° |
| 2026-04-28 18:29 | 51.24037 | 3.75387 | 4504 ft | 94 kts | 80° |
| 2026-04-28 18:29 | 51.24106 | 3.76253 | 4345 ft | 98 kts | 82° |
| 2026-04-28 18:30 | 51.24128 | 3.76501 | 4332 ft | 95 kts | 78° |
| 2026-04-28 18:30 | 51.24170 | 3.76827 | 4322 ft | 90 kts | 76° |
| 2026-04-28 18:30 | 51.24184 | 3.78395 | 4364 ft | 87 kts | 105° |
| 2026-04-28 18:30 | 51.23874 | 3.79367 | 4256 ft | 106 kts | 109° |
| 2026-04-28 18:31 | 51.23580 | 3.80434 | 4267 ft | 104 kts | 102° |
| 2026-04-28 18:31 | 51.23488 | 3.81499 | 4482 ft | 88 kts | 88° |
| 2026-04-28 18:31 | 51.23528 | 3.82360 | 4596 ft | 89 kts | 85° |
| 2026-04-28 18:32 | 51.23566 | 3.82972 | 4636 ft | 42 kts | 87° |
| 2026-04-28 18:32 | 51.23588 | 3.83514 | 4436 ft | 68 kts | 78° |
| 2026-04-28 18:32 | 51.23651 | 3.84456 | 4287 ft | 97 kts | 80° |
| 2026-04-28 18:32 | 51.23738 | 3.85540 | 4315 ft | 99 kts | 77° |
| 2026-04-28 18:33 | 51.23802 | 3.86683 | 4173 ft | 106 kts | 86° |
| 2026-04-28 18:33 | 51.23708 | 3.87810 | 4013 ft | 99 kts | 102° |
| 2026-04-28 18:33 | 51.23447 | 3.88844 | 3716 ft | 101 kts | 102° |
| 2026-04-28 18:33 | 51.23195 | 3.89876 | 3236 ft | 106 kts | 104° |
| 2026-04-28 18:34 | 51.22957 | 3.90839 | 3134 ft | 82 kts | 98° |
| 2026-04-28 18:34 | 51.22866 | 3.91720 | 2831 ft | 77 kts | 88° |
| 2026-04-28 18:34 | 51.22827 | 3.92480 | 2716 ft | 69 kts | 85° |
| 2026-04-28 18:34 | 51.22786 | 3.93393 | 2631 ft | 94 kts | 90° |
| 2026-04-28 18:35 | 51.22717 | 3.94475 | 2612 ft | 101 kts | 93° |
| 2026-04-28 18:35 | 51.22649 | 3.95579 | 2628 ft | 95 kts | 85° |
| 2026-04-28 18:35 | 51.22607 | 3.96477 | 2555 ft | 73 kts | 89° |
| 2026-04-28 18:35 | 51.22536 | 3.97284 | 2321 ft | 78 kts | 87° |
| 2026-04-28 18:36 | 51.22503 | 3.98145 | 2338 ft | 90 kts | 89° |
| 2026-04-28 18:36 | 51.22480 | 3.98892 | 2415 ft | 90 kts | 83° |
| 2026-04-28 18:36 | 51.22419 | 3.99915 | 2479 ft | 93 kts | 89° |
| 2026-04-28 18:37 | 51.22359 | 4.00859 | 2542 ft | 80 kts | 86° |
| 2026-04-28 18:37 | 51.22307 | 4.01732 | 2538 ft | 78 kts | 90° |
| 2026-04-28 18:37 | 51.22254 | 4.02619 | 2464 ft | 84 kts | 84° |
| 2026-04-28 18:37 | 51.22190 | 4.03533 | 2380 ft | 86 kts | 86° |
| 2026-04-28 18:38 | 51.22133 | 4.04536 | 2228 ft | 92 kts | 86° |
| 2026-04-28 18:38 | 51.22089 | 4.05549 | 2137 ft | 90 kts | 82° |
| 2026-04-28 18:38 | 51.22079 | 4.06548 | 2026 ft | 91 kts | 88° |
| 2026-04-28 18:38 | 51.22068 | 4.07537 | 1972 ft | 87 kts | 83° |
| 2026-04-28 18:39 | 51.22076 | 4.08501 | 1887 ft | 87 kts | 76° |
| 2026-04-28 18:39 | 51.22111 | 4.09483 | 1770 ft | 89 kts | 78° |
| 2026-04-28 18:39 | 51.22142 | 4.10449 | 1759 ft | 85 kts | 84° |
| 2026-04-28 18:39 | 51.22155 | 4.11392 | 1668 ft | 88 kts | 83° |
| 2026-04-28 18:40 | 51.22173 | 4.12384 | 1556 ft | 87 kts | 86° |
| 2026-04-28 18:40 | 51.22152 | 4.13354 | 1510 ft | 84 kts | 79° |
| 2026-04-28 18:40 | 51.22203 | 4.14237 | 1559 ft | 76 kts | 73° |
| 2026-04-28 18:40 | 51.22346 | 4.15164 | 1530 ft | 90 kts | 76° |
| 2026-04-28 18:41 | 51.22459 | 4.16136 | 1635 ft | 91 kts | 78° |
| 2026-04-28 18:41 | 51.22545 | 4.17182 | 1664 ft | 97 kts | 76° |
| 2026-04-28 18:41 | 51.22646 | 4.18222 | 1853 ft | 90 kts | 75° |
| 2026-04-28 18:41 | 51.22758 | 4.19215 | 2020 ft | 88 kts | 76° |
| 2026-04-28 18:42 | 51.22879 | 4.20177 | 2116 ft | 92 kts | 73° |
| 2026-04-28 18:42 | 51.22997 | 4.21224 | 2145 ft | 97 kts | 71° |
| 2026-04-28 18:42 | 51.23130 | 4.22234 | 2041 ft | 95 kts | 74° |
| 2026-04-28 18:42 | 51.23280 | 4.23280 | 1832 ft | 94 kts | 69° |
| 2026-04-28 18:43 | 51.23422 | 4.24241 | 1808 ft | 85 kts | 66° |
| 2026-04-28 18:43 | 51.23568 | 4.25166 | 1708 ft | 89 kts | 69° |
| 2026-04-28 18:43 | 51.23623 | 4.26163 | 1621 ft | 89 kts | 91° |
| 2026-04-28 18:43 | 51.23485 | 4.27099 | 1623 ft | 88 kts | 95° |
| 2026-04-28 18:44 | 51.23214 | 4.28018 | 1582 ft | 91 kts | 102° |
| 2026-04-28 18:44 | 51.22602 | 4.29831 | 1440 ft | 96 kts | 91° |
| 2026-04-28 18:44 | 51.22311 | 4.30777 | 1383 ft | 97 kts | 109° |
| 2026-04-28 18:45 | 51.22041 | 4.31734 | 1350 ft | 93 kts | 101° |
| 2026-04-28 18:45 | 51.21826 | 4.32743 | 1173 ft | 98 kts | 101° |
| 2026-04-28 18:45 | 51.21594 | 4.33741 | 1114 ft | 94 kts | 103° |
| 2026-04-28 18:45 | 51.21373 | 4.34684 | 1023 ft | 87 kts | 103° |
| 2026-04-28 18:46 | 51.21170 | 4.35504 | 969 ft | 77 kts | 100° |
| 2026-04-28 18:46 | 51.21055 | 4.36031 | 873 ft | 75 kts | 100° |
| 2026-04-28 18:46 | 51.20867 | 4.36846 | 688 ft | 85 kts | 101° |
| 2026-04-28 18:46 | 51.20694 | 4.37748 | 564 ft | 87 kts | 100° |
| 2026-04-28 18:47 | 51.20582 | 4.38715 | 581 ft | 88 kts | 86° |
| 2026-04-28 18:47 | 51.20466 | 4.39700 | 656 ft | 94 kts | 98° |
| 2026-04-28 18:47 | 51.20284 | 4.40738 | 676 ft | 100 kts | 105° |
| 2026-04-28 18:47 | 51.20051 | 4.41782 | 695 ft | 101 kts | 104° |
| 2026-04-28 18:48 | 51.19789 | 4.42807 | 592 ft | 97 kts | 99° |
| 2026-04-28 18:48 | 51.19600 | 4.43751 | 376 ft | 82 kts | 103° |
| 2026-04-28 18:48 | 51.19408 | 4.44559 | 202 ft | 73 kts | 104° |
| 2026-04-28 18:48 | 51.19240 | 4.45263 | 67 ft | 62 kts | 108° |
| 2026-04-28 18:49 | 51.19120 | 4.45805 | 37 ft | 31 kts | 108° |
| 2026-04-28 18:49 | 51.19074 | 4.45996 | 38 ft | 24 kts | 108° |
| 2026-04-28 18:49 | 51.19045 | 4.46117 | 39 ft | 0 kts | 110° |
| 2026-04-28 18:50 | 51.19027 | 4.46198 | 39 ft | 16 kts | 114° |
| 2026-04-28 18:50 | 51.18957 | 4.46511 | 40 ft | 38 kts | 108° |
| 2026-04-28 18:50 | 51.18873 | 4.46918 | 36 ft | 38 kts | 108° |
| 2026-04-28 18:51 | 51.18799 | 4.47122 | 37 ft | 11 kts | 178° |
| 2026-04-28 18:51 | 51.18739 | 4.47106 | 34 ft | 5 kts | 163° |
| 2026-04-28 18:51 | 51.18697 | 4.47114 | 34 ft | 9 kts | 207° |
| 2026-04-28 18:51 | 51.18641 | 4.47009 | 33 ft | 16 kts | 232° |
| 2026-04-28 18:52 | 51.18582 | 4.46814 | 33 ft | 23 kts | 266° |
| 2026-04-28 18:52 | 51.18595 | 4.46541 | 33 ft | 24 kts | 287° |
| 2026-04-28 18:52 | 51.18632 | 4.46293 | 33 ft | 22 kts | 283° |
| 2026-04-28 18:52 | 51.18669 | 4.46077 | 33 ft | 19 kts | 287° |
| 2026-04-28 18:53 | 51.18679 | 4.46026 | 33 ft | 0 kts | 287° |
| 2026-04-28 18:53 | 51.18646 | 4.46019 | 33 ft | 9 kts | 175° |
| 2026-04-28 18:53 | 51.18598 | 4.45974 | 33 ft | 12 kts | 213° |
| 2026-04-28 18:53 | 51.18527 | 4.45849 | 33 ft | 18 kts | 291° |
| 2026-04-28 18:54 | 51.18606 | 4.45679 | 33 ft | 10 kts | 307° |
| 2026-04-28 18:54 | 51.18612 | 4.45670 | 33 ft | 3 kts | 327° |
| 2026-04-28 18:54 | 51.18678 | 4.45513 | 33 ft | 21 kts | 310° |
| 2026-04-28 18:54 | 51.18710 | 4.45452 | 33 ft | 0 kts | 310° |
| 2026-04-28 18:55 | 51.18747 | 4.45436 | 33 ft | 11 kts | 63° |
| 2026-04-28 18:55 | 51.18755 | 4.45452 | 33 ft | 0 kts | 33° |
| 2026-04-28 18:55 | 51.18717 | 4.45436 | 33 ft | 11 kts | 120° |
| 2026-04-28 18:55 | 51.18729 | 4.45475 | 33 ft | 0 kts | 36° |